Time;durP1;ratioP1;P1;durP2;ratioP2;P2;SDS_P1;SDS_P2;PMS_P1;PMS_P2;Temp;Humidity;BMP_temperature;BMP_pressure;BME280_temperature;BME280_humidity;BME280_pressure;Samples;Min_cycle;Max_cycle;Signal;HPM_P1;HPM_P2
2021/10/30 00:00:56;;;;;;;118.95;47.85;;;;;;;6.77;82.62;101709.14;1757176;81;21683;-69
2021/10/30 00:03:23;;;;;;;119.87;50.67;;;;;;;6.82;82.63;101713.72;1752609;81;21447;-69
2021/10/30 00:05:51;;;;;;;109.70;54.80;;;;;;;6.86;82.62;101711.37;1754370;81;21086;-70
2021/10/30 00:08:20;;;;;;;109.15;45.75;;;;;;;6.89;82.62;101710.78;1785460;79;21090;-69
2021/10/30 00:10:48;;;;;;;94.35;38.73;;;;;;;6.88;82.59;101709.07;1750958;80;20914;-69
2021/10/30 00:13:14;;;;;;;99.52;40.95;;;;;;;6.88;82.64;101706.91;1757357;80;20952;-69
2021/10/30 00:15:42;;;;;;;114.45;43.35;;;;;;;6.87;82.59;101705.20;1779048;79;21008;-70
2021/10/30 00:18:08;;;;;;;109.67;44.60;;;;;;;6.86;82.60;101704.35;1785023;79;21454;-69
2021/10/30 00:20:35;;;;;;;108.00;44.48;;;;;;;6.87;82.63;101702.58;1784739;79;21056;-71
2021/10/30 00:23:01;;;;;;;96.95;44.00;;;;;;;6.90;82.63;101707.69;1782927;79;21774;-68
2021/10/30 00:25:27;;;;;;;98.95;46.35;;;;;;;6.89;82.61;101705.98;1725824;80;21452;-69
2021/10/30 00:27:54;;;;;;;102.85;44.03;;;;;;;6.85;82.62;101705.70;1767865;80;21466;-68
2021/10/30 00:30:20;;;;;;;105.25;45.12;;;;;;;6.86;82.63;101706.98;1778001;80;22162;-69
2021/10/30 00:32:48;;;;;;;78.97;37.00;;;;;;;6.86;82.69;101708.75;1783475;79;20986;-68
2021/10/30 00:35:15;;;;;;;107.25;39.78;;;;;;;6.86;82.72;101712.69;1784700;79;22596;-69
2021/10/30 00:37:42;;;;;;;88.67;37.23;;;;;;;6.85;82.74;101706.59;1757180;80;21486;-69
2021/10/30 00:40:11;;;;;;;92.57;36.15;;;;;;;6.86;82.80;101706.12;1785158;79;21434;-69
2021/10/30 00:42:39;;;;;;;85.00;34.38;;;;;;;6.86;82.86;101704.35;1784334;79;21518;-69
2021/10/30 00:45:07;;;;;;;82.37;33.73;;;;;;;6.89;82.89;101698.95;1757261;81;20981;-69
2021/10/30 00:47:34;;;;;;;99.75;35.95;;;;;;;6.92;82.94;101699.27;1756143;80;21863;-70
2021/10/30 00:50:04;;;;;;;97.80;33.88;;;;;;;6.93;82.90;101702.75;1763255;81;21039;-69
2021/10/30 00:52:30;;;;;;;80.53;30.15;;;;;;;6.90;82.82;101706.38;1745489;81;21003;-68
2021/10/30 00:54:58;;;;;;;76.47;27.65;;;;;;;6.89;82.81;101705.98;1764204;81;21024;-68
2021/10/30 00:57:28;;;;;;;55.65;23.12;;;;;;;6.86;82.83;101708.29;1765429;80;20968;-69
2021/10/30 00:59:55;;;;;;;43.55;19.90;;;;;;;6.87;82.87;101711.31;1765236;81;21799;-69
2021/10/30 01:02:22;;;;;;;34.65;17.85;;;;;;;6.88;82.89;101707.76;1757989;80;20988;-70
2021/10/30 01:04:49;;;;;;;21.50;14.30;;;;;;;6.89;82.89;101709.92;1766332;81;20959;-69
2021/10/30 01:07:15;;;;;;;22.10;16.45;;;;;;;6.89;82.92;101713.41;1762673;80;21743;-71
2021/10/30 01:09:42;;;;;;;26.55;15.98;;;;;;;6.89;82.88;101713.86;1766401;80;21111;-72
2021/10/30 01:12:10;;;;;;;23.80;16.20;;;;;;;6.88;82.86;101720.89;1761957;79;21118;-70
2021/10/30 01:14:37;;;;;;;27.90;15.85;;;;;;;6.86;82.84;101719.25;1773014;80;21128;-71
2021/10/30 01:17:05;;;;;;;24.10;14.83;;;;;;;6.84;82.84;101717.13;1702243;81;21507;-69
2021/10/30 01:19:32;;;;;;;21.70;15.20;;;;;;;6.83;82.82;101718.05;1754580;81;21009;-70
2021/10/30 01:21:59;;;;;;;21.33;14.87;;;;;;;6.80;82.82;101716.42;1755949;81;20964;-70
2021/10/30 01:24:25;;;;;;;19.40;15.48;;;;;;;6.80;82.83;101718.19;1781455;80;22169;-69
2021/10/30 01:26:54;;;;;;;27.87;17.27;;;;;;;6.80;82.88;101717.73;1754482;81;21024;-70
2021/10/30 01:29:20;;;;;;;24.10;16.75;;;;;;;6.82;82.89;101718.97;1759184;81;21075;-70
2021/10/30 01:31:49;;;;;;;21.23;16.20;;;;;;;6.82;82.88;101718.52;1768671;81;20966;-70
2021/10/30 01:34:16;;;;;;;69.25;49.13;;;;;;;6.83;82.86;101718.05;1760055;81;21421;-69
2021/10/30 01:36:44;;;;;;;34.63;27.85;;;;;;;6.81;82.83;101718.58;1753225;81;21860;-70
2021/10/30 01:39:10;;;;;;;42.48;29.30;;;;;;;6.80;82.88;101720.81;1755535;81;21031;-70
2021/10/30 01:41:37;;;;;;;36.08;24.45;;;;;;;6.78;82.92;101713.02;1758152;81;20988;-69
2021/10/30 01:44:04;;;;;;;29.52;22.42;;;;;;;6.80;82.95;101710.31;1746359;81;21020;-68
2021/10/30 01:46:32;;;;;;;29.67;23.22;;;;;;;6.81;82.96;101715.95;1755448;81;21017;-68
2021/10/30 01:49:00;;;;;;;26.57;21.70;;;;;;;6.81;82.95;101720.75;1754591;81;21783;-69
2021/10/30 01:51:27;;;;;;;26.40;20.62;;;;;;;6.81;82.99;101712.02;1758725;81;20932;-70
2021/10/30 01:53:53;;;;;;;30.35;19.10;;;;;;;6.81;83.01;101707.62;1747219;81;21143;-69
2021/10/30 01:56:20;;;;;;;31.30;20.40;;;;;;;6.84;83.04;101706.62;1758551;81;21036;-70
2021/10/30 01:58:48;;;;;;;26.68;20.48;;;;;;;6.83;82.96;101707.55;1758435;81;20989;-70
2021/10/30 02:01:14;;;;;;;24.57;18.30;;;;;;;6.82;82.94;101712.41;1769038;80;22282;-69
2021/10/30 02:03:41;;;;;;;25.12;18.85;;;;;;;6.82;82.96;101707.16;1757676;81;21453;-69
2021/10/30 02:06:08;;;;;;;23.98;17.32;;;;;;;6.83;83.03;101704.46;1741627;80;21000;-70
2021/10/30 02:08:35;;;;;;;30.20;19.00;;;;;;;6.86;82.98;101708.29;1764923;80;21333;-69
2021/10/30 02:11:01;;;;;;;27.82;19.92;;;;;;;6.88;82.95;101709.53;1766376;81;21047;-69
2021/10/30 02:13:29;;;;;;;36.45;22.13;;;;;;;6.90;82.91;101711.63;1775705;80;21770;-69
2021/10/30 02:15:56;;;;;;;32.08;21.52;;;;;;;6.95;82.93;101712.73;1767580;80;20949;-69
2021/10/30 02:18:22;;;;;;;31.48;19.10;;;;;;;6.96;82.88;101707.90;1766088;80;21065;-70
2021/10/30 02:20:49;;;;;;;32.80;20.35;;;;;;;6.97;82.87;101709.60;1760428;81;20964;-69
2021/10/30 02:23:15;;;;;;;27.65;20.62;;;;;;;6.98;82.85;101702.97;1764042;80;21483;-69
2021/10/30 02:25:42;;;;;;;19.95;15.53;;;;;;;6.99;82.82;101709.06;1765827;80;21471;-72
2021/10/30 02:28:08;;;;;;;27.73;21.10;;;;;;;7.01;82.84;101711.16;1773548;80;21389;-74
2021/10/30 02:30:36;;;;;;;27.10;20.97;;;;;;;6.97;82.74;101712.23;1766660;80;20968;-73
2021/10/30 02:33:03;;;;;;;27.58;20.00;;;;;;;6.96;82.72;101719.25;1767739;80;21083;-74
2021/10/30 02:35:30;;;;;;;25.88;18.80;;;;;;;6.93;82.71;101716.73;1780905;79;21019;-72
2021/10/30 02:37:56;;;;;;;29.05;20.68;;;;;;;6.93;82.68;101725.93;1796623;79;22392;-72
2021/10/30 02:40:23;;;;;;;27.00;20.20;;;;;;;6.93;82.63;101722.45;1769858;79;21473;-72
2021/10/30 02:42:49;;;;;;;26.68;18.90;;;;;;;6.93;82.63;101725.08;1764638;80;21058;-73
2021/10/30 02:45:17;;;;;;;27.02;20.35;;;;;;;6.93;82.62;101731.19;1749270;81;21004;-73
2021/10/30 02:47:45;;;;;;;27.70;20.68;;;;;;;6.93;82.58;101727.70;1756308;80;21019;-74
2021/10/30 02:50:11;;;;;;;26.27;19.45;;;;;;;6.89;82.52;101737.50;1764843;80;21824;-73
2021/10/30 02:52:40;;;;;;;25.72;18.82;;;;;;;6.86;82.49;101737.64;1763257;80;20999;-73
2021/10/30 02:55:09;;;;;;;25.32;19.00;;;;;;;6.86;82.48;101736.33;1778067;79;21012;-73
2021/10/30 02:57:36;;;;;;;27.42;19.55;;;;;;;6.86;82.48;101737.18;1767574;80;21395;-73
2021/10/30 03:00:08;;;;;;;30.05;22.82;;;;;;;6.87;82.43;101737.57;1763552;81;21469;-74
2021/10/30 03:02:36;;;;;;;30.45;22.27;;;;;;;6.88;82.43;101737.11;1763704;81;21440;-73
2021/10/30 03:05:03;;;;;;;36.20;24.80;;;;;;;6.89;82.41;101742.30;1763526;81;21756;-73
2021/10/30 03:07:31;;;;;;;35.80;24.85;;;;;;;6.87;82.40;101735.41;1765192;79;21027;-73
2021/10/30 03:09:59;;;;;;;35.58;22.22;;;;;;;6.91;82.37;101746.63;1763306;80;20988;-73
2021/10/30 03:12:26;;;;;;;31.07;22.58;;;;;;;6.92;82.33;101743.08;1773801;80;21407;-73
2021/10/30 03:14:56;;;;;;;27.27;20.05;;;;;;;6.92;82.28;101743.08;1778432;80;22260;-74
2021/10/30 03:17:23;;;;;;;29.07;20.43;;;;;;;6.93;82.23;101744.78;1753895;81;21109;-75
2021/10/30 03:19:49;;;;;;;29.98;20.82;;;;;;;6.91;82.09;101744.00;1751560;80;20960;-74
2021/10/30 03:22:15;;;;;;;29.50;20.70;;;;;;;6.88;82.05;101744.53;1766293;80;20989;-74
2021/10/30 03:24:42;;;;;;;30.12;20.52;;;;;;;6.88;82.02;101748.47;1789346;80;21040;-73
2021/10/30 03:27:09;;;;;;;28.80;20.62;;;;;;;6.87;81.97;101744.14;1769411;80;21756;-73
2021/10/30 03:29:36;;;;;;;26.30;19.77;;;;;;;6.83;81.93;101746.94;1757339;81;20933;-74
2021/10/30 03:32:03;;;;;;;30.12;21.60;;;;;;;6.81;81.91;101743.53;1785011;80;21047;-73
2021/10/30 03:34:30;;;;;;;30.92;21.35;;;;;;;6.76;81.86;101744.20;1760713;81;21284;-74
2021/10/30 03:36:56;;;;;;;28.60;20.50;;;;;;;6.73;81.84;101738.59;1760751;81;21359;-73
2021/10/30 03:39:23;;;;;;;32.53;22.55;;;;;;;6.72;81.86;101733.41;1760706;81;22828;-73
2021/10/30 03:41:49;;;;;;;33.28;22.48;;;;;;;6.73;81.87;101740.36;1760661;81;21104;-75
2021/10/30 03:44:16;;;;;;;34.27;23.52;;;;;;;6.75;81.87;101739.38;1771411;81;20949;-72
2021/10/30 03:46:42;;;;;;;34.85;23.38;;;;;;;6.77;81.86;101740.66;1770567;81;20989;-73
2021/10/30 03:49:09;;;;;;;38.40;25.23;;;;;;;6.77;81.83;101731.46;1764870;81;21025;-73
2021/10/30 03:51:35;;;;;;;36.93;24.35;;;;;;;6.74;81.78;101733.73;1765504;80;22186;-73
2021/10/30 03:54:02;;;;;;;41.10;27.65;;;;;;;6.73;81.76;101735.11;1775979;80;20973;-73
2021/10/30 03:56:28;;;;;;;37.23;25.57;;;;;;;6.71;81.77;101738.27;1782863;80;20957;-73
2021/10/30 03:58:55;;;;;;;40.00;25.68;;;;;;;6.69;81.76;101744.05;1782464;80;21521;-73
2021/10/30 04:01:22;;;;;;;32.93;23.25;;;;;;;6.67;81.76;101736.70;1782674;80;21406;-74
2021/10/30 04:03:48;;;;;;;36.23;22.85;;;;;;;6.66;81.80;101735.84;1772823;80;22608;-74
2021/10/30 04:06:15;;;;;;;31.00;21.65;;;;;;;6.68;81.80;101735.32;1769214;81;21396;-74
2021/10/30 04:08:43;;;;;;;32.80;21.97;;;;;;;6.68;81.77;101731.84;1765348;79;21485;-74
2021/10/30 04:11:10;;;;;;;32.08;20.97;;;;;;;6.63;81.69;101734.64;1738787;82;21022;-73
2021/10/30 04:13:38;;;;;;;34.65;21.80;;;;;;;6.59;81.70;101736.55;1738950;82;20972;-72
2021/10/30 04:16:04;;;;;;;32.33;20.40;;;;;;;6.58;81.63;101732.68;1767911;79;21860;-74
2021/10/30 04:18:31;;;;;;;33.70;21.65;;;;;;;6.54;81.59;101738.95;1769566;81;21015;-73
2021/10/30 04:20:57;;;;;;;35.13;22.07;;;;;;;6.49;81.54;101743.09;1769330;81;20996;-74
2021/10/30 04:23:23;;;;;;;33.15;21.87;;;;;;;6.46;81.56;101742.34;1770082;79;21063;-74
2021/10/30 04:25:52;;;;;;;36.15;22.95;;;;;;;6.45;81.57;101747.20;1782605;80;21495;-74
2021/10/30 04:28:19;;;;;;;32.20;21.42;;;;;;;6.43;81.56;101745.95;1762607;80;22517;-73
2021/10/30 04:30:46;;;;;;;33.90;22.13;;;;;;;6.42;81.58;101745.56;1763944;81;20948;-74
2021/10/30 04:33:15;;;;;;;34.63;20.90;;;;;;;6.40;81.60;101741.30;1777900;79;21012;-74
2021/10/30 04:35:42;;;;;;;43.95;24.07;;;;;;;6.40;81.60;101747.40;1764808;79;21564;-73
2021/10/30 04:38:10;;;;;;;39.35;23.30;;;;;;;6.39;81.60;101743.07;1766238;81;37072;-73
2021/10/30 04:40:36;;;;;;;45.58;22.98;;;;;;;6.37;81.56;101748.84;1765780;81;21914;-74
2021/10/30 04:43:05;;;;;;;38.20;23.05;;;;;;;6.36;81.56;101757.60;1764687;81;20928;-74
2021/10/30 04:45:33;;;;;;;42.25;24.82;;;;;;;6.36;81.62;101757.60;1763628;79;21091;-71
2021/10/30 04:48:00;;;;;;;39.48;24.00;;;;;;;6.36;81.62;101757.60;1768901;80;21047;-72
2021/10/30 04:50:26;;;;;;;44.00;23.67;;;;;;;6.38;81.68;101752.32;1777890;79;20929;-72
2021/10/30 04:52:53;;;;;;;39.98;22.50;;;;;;;6.42;81.67;101756.52;1773767;80;21820;-73
2021/10/30 04:55:19;;;;;;;41.73;22.62;;;;;;;6.41;81.68;101756.98;1767167;79;20953;-73
2021/10/30 04:57:47;;;;;;;45.15;24.52;;;;;;;6.39;81.69;101752.72;1769408;80;20940;-73
2021/10/30 05:00:14;;;;;;;37.83;20.85;;;;;;;6.35;81.72;101754.59;1766287;81;21000;-74
2021/10/30 05:02:42;;;;;;;45.92;25.17;;;;;;;6.32;81.78;101756.03;1767878;80;21019;-72
2021/10/30 05:05:08;;;;;;;50.88;25.77;;;;;;;6.28;81.82;101760.56;1778290;80;22239;-74
2021/10/30 05:07:35;;;;;;;49.42;25.32;;;;;;;6.31;81.90;101758.27;1776870;79;21001;-74
2021/10/30 05:10:01;;;;;;;57.85;24.02;;;;;;;6.34;81.97;101763.84;1779690;80;21021;-74
2021/10/30 05:12:27;;;;;;;65.75;26.77;;;;;;;6.36;82.01;101762.00;1779810;80;20957;-74
2021/10/30 05:14:54;;;;;;;56.02;26.45;;;;;;;6.36;82.00;101763.31;1768208;80;21008;-74
2021/10/30 05:17:20;;;;;;;65.55;25.48;;;;;;;6.36;82.02;101760.69;1768853;79;22206;-74
2021/10/30 05:19:47;;;;;;;60.70;25.32;;;;;;;6.36;82.05;101766.79;1778898;80;20949;-73
2021/10/30 05:22:15;;;;;;;56.10;26.27;;;;;;;6.37;82.04;101766.33;1763544;80;21000;-74
2021/10/30 05:24:41;;;;;;;71.22;25.30;;;;;;;6.35;82.05;101765.08;1770002;80;21040;-73
2021/10/30 05:27:08;;;;;;;44.73;23.02;;;;;;;6.36;82.09;101764.16;1769557;80;21424;-73
2021/10/30 05:29:35;;;;;;;58.05;26.27;;;;;;;6.36;82.14;101772.50;1767567;79;21827;-74
2021/10/30 05:32:02;;;;;;;56.42;26.15;;;;;;;6.35;82.16;101766.39;1760720;80;21479;-75
2021/10/30 05:34:29;;;;;;;67.15;24.77;;;;;;;6.37;82.21;101771.16;1781534;80;20956;-74
2021/10/30 05:37:08;;;;;;;65.95;24.50;;;;;;;6.42;82.27;101776.20;1757475;80;20957;-72
2021/10/30 05:39:51;;;;;;;61.53;27.32;;;;;;;6.41;82.22;101782.37;1769690;80;28128;-72
2021/10/30 05:42:18;;;;;;;83.27;26.60;;;;;;;6.37;82.23;101775.52;1759479;81;21823;-74
2021/10/30 05:44:44;;;;;;;58.58;25.35;;;;;;;6.38;82.31;101777.25;1751817;81;21467;-74
2021/10/30 05:47:11;;;;;;;43.85;22.87;;;;;;;6.41;82.33;101783.69;1748173;80;22092;-77
2021/10/30 05:49:39;;;;;;;79.00;28.15;;;;;;;6.41;82.36;101782.37;1756254;80;21067;-74
2021/10/30 05:52:07;;;;;;;59.33;29.02;;;;;;;6.37;82.37;101783.39;1751092;81;20988;-74
2021/10/30 05:54:35;;;;;;;56.35;27.58;;;;;;;6.37;82.41;101788.21;1742692;80;21852;-73
2021/10/30 05:57:02;;;;;;;70.25;27.27;;;;;;;6.43;82.53;101790.57;1761616;80;20998;-74
2021/10/30 05:59:30;;;;;;;65.37;28.35;;;;;;;6.47;82.54;101796.12;1748192;81;20961;-73
2021/10/30 06:01:56;;;;;;;51.37;26.75;;;;;;;6.51;82.59;101793.75;1738855;82;21083;-72
2021/10/30 06:04:23;;;;;;;48.95;25.48;;;;;;;6.55;82.61;101802.34;1760073;81;20975;-72
2021/10/30 06:06:49;;;;;;;41.70;23.83;;;;;;;6.57;82.61;101805.33;1733447;81;22379;-72
2021/10/30 06:09:17;;;;;;;51.35;27.25;;;;;;;6.58;82.55;101812.28;1746309;81;20945;-72
2021/10/30 06:11:45;;;;;;;46.65;27.60;;;;;;;6.58;82.47;101808.81;1740160;80;21432;-71
2021/10/30 06:14:12;;;;;;;44.42;25.50;;;;;;;6.56;82.48;101807.98;1740814;82;21410;-72
2021/10/30 06:16:39;;;;;;;53.23;30.02;;;;;;;6.56;82.48;101806.25;1740479;82;20991;-71
2021/10/30 06:19:06;;;;;;;50.85;29.48;;;;;;;6.56;82.43;101810.61;1735441;81;22245;-71
2021/10/30 06:21:33;;;;;;;66.15;34.92;;;;;;;6.57;82.46;101805.80;1733263;81;21016;-73
2021/10/30 06:23:59;;;;;;;56.63;32.38;;;;;;;6.57;82.42;101807.95;1752981;81;20963;-74
2021/10/30 06:26:27;;;;;;;55.73;29.98;;;;;;;6.59;82.43;101803.49;1752281;80;21064;-72
2021/10/30 06:28:54;;;;;;;61.55;33.05;;;;;;;6.61;82.43;101806.05;1763020;80;21056;-71
2021/10/30 06:31:21;;;;;;;66.75;33.75;;;;;;;6.64;82.43;101809.00;1767676;80;21817;-71
2021/10/30 06:33:49;;;;;;;78.40;39.42;;;;;;;6.67;82.45;101807.13;1781748;80;21020;-69
2021/10/30 06:36:16;;;;;;;67.72;35.63;;;;;;;6.73;82.46;101809.95;1780812;79;21333;-71
2021/10/30 06:38:43;;;;;;;150.03;58.38;;;;;;;6.75;82.44;101805.48;1778712;80;21564;-72
2021/10/30 06:41:12;;;;;;;156.75;63.15;;;;;;;6.77;82.41;101808.47;1784812;80;20857;-71
2021/10/30 06:43:37;;;;;;;80.42;38.17;;;;;;;6.79;82.32;101814.97;1784719;80;21852;-74
2021/10/30 06:46:04;;;;;;;72.12;35.15;;;;;;;6.78;82.09;101814.11;1784774;79;21435;-74
2021/10/30 06:48:31;;;;;;;75.25;37.58;;;;;;;6.73;81.95;101806.86;1790164;79;21525;-74
2021/10/30 06:50:57;;;;;;;104.25;48.85;;;;;;;6.72;81.88;101817.43;1784165;79;21213;-74
2021/10/30 06:53:24;;;;;;;101.05;47.20;;;;;;;6.68;81.84;101815.40;1788258;79;20856;-74
2021/10/30 06:55:53;;;;;;;102.95;47.60;;;;;;;6.68;81.87;101815.40;1786642;79;21818;-74
2021/10/30 06:58:19;;;;;;;159.00;60.78;;;;;;;6.69;81.91;101811.86;1784754;79;20932;-73
2021/10/30 07:00:45;;;;;;;167.15;67.58;;;;;;;6.77;82.05;101811.55;1784601;79;20948;-73
2021/10/30 07:03:12;;;;;;;189.00;75.22;;;;;;;6.83;82.10;101814.77;1785017;80;21470;-74
2021/10/30 07:05:40;;;;;;;219.53;81.60;;;;;;;6.89;82.03;101818.46;1780208;80;20937;-74
2021/10/30 07:08:07;;;;;;;201.30;76.82;;;;;;;6.85;82.09;101818.63;1780510;79;22684;-75
2021/10/30 07:10:34;;;;;;;202.07;77.60;;;;;;;6.73;82.51;101813.42;1771623;80;21473;-73
2021/10/30 07:13:00;;;;;;;197.93;74.10;;;;;;;6.74;82.67;101815.13;1787692;80;21478;-73
2021/10/30 07:15:27;;;;;;;198.62;75.57;;;;;;;6.78;82.74;101818.52;1783874;79;21444;-70
2021/10/30 07:17:53;;;;;;;185.28;72.72;;;;;;;6.82;82.76;101818.77;1782858;80;21463;-74
2021/10/30 07:20:19;;;;;;;191.30;75.20;;;;;;;6.87;82.80;101820.77;1751628;80;22165;-69
2021/10/30 07:22:48;;;;;;;197.43;75.87;;;;;;;6.89;82.71;101812.36;1756209;81;21472;-71
2021/10/30 07:25:17;;;;;;;191.28;74.15;;;;;;;7.02;82.43;101812.69;1756470;80;21101;-71
2021/10/30 07:27:44;;;;;;;184.90;73.90;;;;;;;7.07;82.31;101819.48;1758648;81;21028;-73
2021/10/30 07:30:11;;;;;;;188.32;73.10;;;;;;;7.09;82.20;101817.63;1764071;81;21066;-71
2021/10/30 07:32:38;;;;;;;182.17;68.10;;;;;;;7.13;82.22;101813.09;1754220;81;21848;-72
2021/10/30 07:35:05;;;;;;;160.52;64.37;;;;;;;7.16;82.12;101819.55;1751563;81;20989;-73
2021/10/30 07:37:34;;;;;;;173.13;69.27;;;;;;;7.16;82.07;101809.89;1752211;81;20996;-73
2021/10/30 07:40:00;;;;;;;192.98;78.87;;;;;;;7.18;82.01;101811.99;1760217;81;21104;-72
2021/10/30 07:42:27;;;;;;;200.03;84.85;;;;;;;7.18;81.98;101805.42;1759591;81;21006;-72
2021/10/30 07:44:53;;;;;;;233.90;119.95;;;;;;;7.22;81.97;101817.11;1758551;80;22154;-72
2021/10/30 07:47:21;;;;;;;178.55;80.65;;;;;;;7.25;81.93;101810.43;1755981;80;21402;-72
2021/10/30 07:49:47;;;;;;;197.47;75.08;;;;;;;7.30;81.98;101813.23;1757516;81;20948;-73
2021/10/30 07:52:14;;;;;;;179.23;74.77;;;;;;;7.35;81.86;101807.80;1754218;81;20996;-73
2021/10/30 07:54:41;;;;;;;197.72;80.95;;;;;;;7.34;81.77;101808.27;1757672;80;21015;-73
2021/10/30 07:57:08;;;;;;;220.70;87.12;;;;;;;7.35;81.69;101809.12;1759952;81;22553;-72
2021/10/30 07:59:38;;;;;;;238.10;89.20;;;;;;;7.38;81.67;101813.77;1759863;81;21390;-72
2021/10/30 08:02:07;;;;;;;253.30;88.12;;;;;;;7.44;81.68;101808.72;1759768;81;21027;-72
2021/10/30 08:04:34;;;;;;;254.78;91.28;;;;;;;7.52;81.55;101814.47;1759599;80;21014;-73
2021/10/30 08:07:01;;;;;;;291.80;100.78;;;;;;;7.57;81.41;101811.66;1759907;81;20848;-73
2021/10/30 08:09:27;;;;;;;320.75;116.40;;;;;;;7.62;81.10;101817.55;1760299;81;22180;-73
2021/10/30 08:11:56;;;;;;;302.60;112.08;;;;;;;7.60;80.79;101812.36;1765557;78;20940;-71
2021/10/30 08:14:24;;;;;;;304.68;111.22;;;;;;;7.58;80.54;101820.79;1754336;81;20992;-70
2021/10/30 08:16:51;;;;;;;293.50;108.20;;;;;;;7.57;80.42;101815.14;1759625;80;20988;-71
2021/10/30 08:19:18;;;;;;;271.15;105.07;;;;;;;7.56;80.16;101825.27;1759855;81;21549;-70
2021/10/30 08:21:44;;;;;;;283.82;110.25;;;;;;;7.55;80.00;101822.70;1759746;81;21800;-72
2021/10/30 08:24:11;;;;;;;273.48;107.43;;;;;;;7.56;80.05;101817.84;1759986;81;21470;-72
2021/10/30 08:26:38;;;;;;;292.62;111.08;;;;;;;7.63;80.08;101821.45;1734194;81;20924;-74
2021/10/30 08:29:05;;;;;;;266.57;106.95;;;;;;;7.70;79.96;101818.92;1759998;81;21003;-73
2021/10/30 08:31:31;;;;;;;264.40;104.05;;;;;;;7.76;79.89;101824.39;1740696;82;21052;-73
2021/10/30 08:33:58;;;;;;;266.80;105.22;;;;;;;7.82;79.82;101815.38;1748241;81;22219;-71
2021/10/30 08:36:28;;;;;;;265.65;104.80;;;;;;;7.84;79.62;101813.06;1759616;81;21022;-73
2021/10/30 08:38:56;;;;;;;251.15;102.72;;;;;;;7.87;79.51;101818.18;1783537;80;20989;-72
2021/10/30 08:41:23;;;;;;;266.75;103.83;;;;;;;7.91;79.44;101815.82;1756052;81;20996;-71
2021/10/30 08:43:50;;;;;;;257.73;105.10;;;;;;;7.95;79.36;101809.95;1756058;81;21000;-73
2021/10/30 08:46:16;;;;;;;245.02;97.67;;;;;;;8.02;79.29;101814.87;1757202;81;21774;-73
2021/10/30 08:48:46;;;;;;;221.68;88.95;;;;;;;8.07;79.17;101812.01;1757714;81;20957;-73
2021/10/30 08:51:13;;;;;;;220.22;93.40;;;;;;;8.12;79.04;101814.44;1762966;80;21008;-72
2021/10/30 08:53:39;;;;;;;210.43;89.62;;;;;;;8.12;78.88;101809.19;1750586;82;21466;-71
2021/10/30 08:56:07;;;;;;;207.03;87.97;;;;;;;8.13;78.84;101801.21;1754205;81;20965;-73
2021/10/30 08:58:34;;;;;;;207.50;88.27;;;;;;;8.17;78.77;101800.59;1765221;80;21844;-72
2021/10/30 09:01:06;;;;;;;195.55;91.17;;;;;;;8.22;78.78;101795.52;1766831;81;21036;-73
2021/10/30 09:03:34;;;;;;;190.40;87.00;;;;;;;8.30;78.73;101797.80;1774987;79;21409;-72
2021/10/30 09:06:00;;;;;;;187.15;83.40;;;;;;;8.37;78.55;101793.11;1749417;80;21358;-73
2021/10/30 09:08:27;;;;;;;174.45;82.85;;;;;;;8.43;78.42;101802.89;1775094;80;20939;-72
2021/10/30 09:11:09;;;;;;;173.20;79.10;;;;;;;8.47;78.29;101800.48;1774909;80;22333;-74
2021/10/30 09:13:37;;;;;;;171.57;83.12;;;;;;;8.52;78.13;101799.82;1747554;81;21515;-73
2021/10/30 09:16:04;;;;;;;179.38;84.50;;;;;;;8.57;78.02;101802.22;1779321;79;20953;-71
2021/10/30 09:18:39;;;;;;;177.35;84.85;;;;;;;8.62;77.99;101797.59;1758522;81;21761;-70
2021/10/30 09:21:14;;;;;;;163.68;82.15;;;;;;;8.69;77.77;101804.75;1766775;81;20984;-68
2021/10/30 09:23:52;;;;;;;180.97;86.42;;;;;;;8.72;77.51;101804.59;1764763;80;22306;-69
2021/10/30 09:26:25;;;;;;;159.43;78.83;;;;;;;8.74;77.39;101799.63;1765566;80;21044;-72
2021/10/30 09:28:57;;;;;;;180.23;88.30;;;;;;;8.84;77.31;101800.02;1767604;81;21016;-69
2021/10/30 09:31:24;;;;;;;184.65;91.97;;;;;;;8.86;76.95;101800.33;1766588;81;21513;-75
2021/10/30 09:33:58;;;;;;;172.68;88.07;;;;;;;8.87;76.65;101794.12;1766502;80;21042;-71
2021/10/30 09:36:30;;;;;;;179.25;90.87;;;;;;;8.89;76.53;101798.03;1769138;80;21830;-70
2021/10/30 09:39:02;;;;;;;180.30;91.35;;;;;;;8.89;76.20;101796.71;1768652;80;20953;-68
2021/10/30 09:41:38;;;;;;;173.78;88.05;;;;;;;8.90;76.02;101799.73;1758111;81;21353;-70
2021/10/30 09:44:11;;;;;;;174.82;90.30;;;;;;;8.95;76.00;101791.12;1756774;81;20982;-68
2021/10/30 09:46:46;;;;;;;180.10;92.42;;;;;;;9.03;76.00;101794.23;1765605;81;20997;-70
2021/10/30 09:49:18;;;;;;;170.62;90.80;;;;;;;9.15;75.98;101792.28;1783427;80;21831;-69
2021/10/30 09:51:48;;;;;;;176.72;89.67;;;;;;;9.28;75.86;101789.89;1785006;80;21452;-70
2021/10/30 09:54:36;;;;;;;166.73;86.63;;;;;;;9.35;75.50;101787.30;1784739;80;21621;-69
2021/10/30 09:57:06;;;;;;;155.30;85.17;;;;;;;9.44;75.27;101785.50;1783237;80;21013;-70
2021/10/30 09:59:38;;;;;;;151.45;82.30;;;;;;;9.54;75.01;101784.56;1782401;79;21141;-71
2021/10/30 10:02:08;;;;;;;136.40;77.05;;;;;;;9.65;74.96;101781.34;1782286;79;22537;-70
2021/10/30 10:04:42;;;;;;;142.95;75.90;;;;;;;9.80;74.67;101782.33;1783117;80;20984;-70
2021/10/30 10:07:10;;;;;;;135.20;76.12;;;;;;;9.92;74.30;101780.34;1771062;81;20978;-70
2021/10/30 10:09:38;;;;;;;96.85;57.20;;;;;;;10.12;74.14;101770.86;1779200;79;20961;-69
2021/10/30 10:12:07;;;;;;;79.72;47.03;;;;;;;10.40;73.83;101774.64;1779527;80;20942;-68
2021/10/30 10:14:35;;;;;;;89.17;48.30;;;;;;;10.51;72.94;101774.41;1779599;80;20921;-69
2021/10/30 10:17:03;;;;;;;79.40;45.30;;;;;;;10.52;72.55;101774.82;1779336;80;20992;-70
2021/10/30 10:19:29;;;;;;;65.65;41.35;;;;;;;10.54;72.12;101772.94;1779617;80;20933;-69
2021/10/30 10:21:56;;;;;;;62.65;39.50;;;;;;;10.54;71.94;101768.98;1724901;80;21000;-70
2021/10/30 10:24:35;;;;;;;54.83;33.73;;;;;;;10.51;71.62;101758.56;1725090;82;21039;-70
2021/10/30 10:27:05;;;;;;;52.38;34.85;;;;;;;10.50;71.27;101763.94;1764906;80;22510;-69
2021/10/30 10:29:42;;;;;;;56.55;36.28;;;;;;;10.31;70.64;101757.52;1784942;79;21023;-70
2021/10/30 10:32:18;;;;;;;55.30;35.17;;;;;;;10.13;70.52;101748.80;1775673;80;21404;-70
2021/10/30 10:34:45;;;;;;;54.85;35.25;;;;;;;10.08;70.74;101748.69;1781239;80;21423;-70
2021/10/30 10:37:20;;;;;;;53.80;35.58;;;;;;;10.12;71.14;101750.22;1778790;80;21488;-70
2021/10/30 10:39:54;;;;;;;51.05;33.85;;;;;;;10.20;71.05;101748.85;1730588;83;22480;-69
2021/10/30 10:42:41;;;;;;;;;;;;;;;10.23;70.92;101748.73;1708268;83;20957;-70
2021/10/30 10:45:13;;;;;;;45.73;31.00;;;;;;;10.23;70.84;101751.38;1749805;81;20217;-69
2021/10/30 10:47:49;;;;;;;47.98;31.85;;;;;;;10.22;70.77;101744.83;1760487;81;20969;-68
2021/10/30 10:50:30;;;;;;;48.40;30.80;;;;;;;10.11;70.29;101748.52;1760551;81;21044;-68
2021/10/30 10:53:12;;;;;;;46.63;31.27;;;;;;;9.99;70.28;101748.26;1767641;80;21795;-69
2021/10/30 10:55:47;;;;;;;52.10;33.95;;;;;;;9.85;70.16;101756.56;1747457;80;21063;-69
2021/10/30 10:58:16;;;;;;;48.98;33.50;;;;;;;9.71;70.30;101750.69;1764920;81;21039;-70
2021/10/30 11:01:04;;;;;;;49.58;33.63;;;;;;;9.60;70.44;101749.11;1768432;80;21013;-69
2021/10/30 11:03:31;;;;;;;47.27;31.12;;;;;;;9.58;70.76;101755.78;1765590;80;20964;-70
2021/10/30 11:05:58;;;;;;;44.95;30.08;;;;;;;9.66;71.04;101754.06;1763788;80;22629;-69
2021/10/30 11:08:34;;;;;;;42.62;29.10;;;;;;;9.73;70.99;101752.78;1784469;80;21439;-69
2021/10/30 11:11:25;;;;;;;39.38;27.75;;;;;;;9.79;71.05;101751.61;1763756;81;21024;-69
2021/10/30 11:13:59;;;;;;;38.48;27.42;;;;;;;9.72;70.62;101747.97;1765440;81;21547;-70
2021/10/30 11:16:43;;;;;;;39.40;27.55;;;;;;;9.57;70.52;101746.17;1765590;81;21063;-70
2021/10/30 11:19:26;;;;;;;38.25;27.00;;;;;;;9.46;70.57;101749.38;1764992;81;22865;-69